Portada
METAR-TAF:

METAR-TAF

Aeropuertos :

Decatur, Illinois, Estados Unidos

latitud: 39-50-04N, longitud: 088-51-56W, altitud: 208 m

Observación

El informe se hizo hace 53 minutos, a las 19:54 UTC
Viento 9 kt del sur
Temperatura 33°C
Humedad 44%
Presión 1022 hPa
Visibilidad: 16.1 km
Escasas nubes a una altura de 6000 ft
Nubes dispersas a una altura de 7500 ft

METAR: KDEC 191954Z 19009KT 10SM FEW060 SCT075 33/19 A3019 RMK AO2 SLP217 T03330189

Hora: 15:47 (20:47 UTC)

Pronóstico

El informe se hizo hace 3 horas y 27 minutos, a las 17:20 UTC
Pronóstico válido del 19 a las 18 UTC al 20 a las 18 UTC
Viento 11 kt del sur
Visibilidad: 10 km
Nubes dispersas a una altura de 5000 ft
Nubes dispersas a una altura de 12000 ft
A partir de las 20 a las 0100 UTC
Viento 4 kt del sur
Visibilidad: 10 km
Nubes dispersas a una altura de 12000 ft

TAF: KDEC 191720Z 1918/2018 19011KT P6SM SCT050 SCT120 FM200100 18004KT P6SM SCT120

Observaciones y pronósticos meteorológicos de más de 4000 aeropuertos (mensajes METAR y TAF).

Los puntos amarillos y rojos representan las estaciones disponibles.

Ponga el ratón en el punto deseado para ver el nombre de la estación.

Haga clic para ver las observaciones y los pronósticos meteorológicos.

Para cambiar el mapa : haga clic en los botones verdes con una cruz de color negro para hacer un zoom, en el botón verde con un guión para alejar o en las flechas verdes para mapas adyacentes.


METAR-TAF: